sensor_id;sensor_type;location;lat;lon;timestamp;P1;durP1;ratioP1;P2;durP2;ratioP2
305;SDS011;137;48.578;9.180;2023-11-19T00:02:23;3.70;;;2.13;;
305;SDS011;137;48.578;9.180;2023-11-19T00:04:50;2.43;;;2.20;;
305;SDS011;137;48.578;9.180;2023-11-19T00:07:16;2.20;;;1.80;;
305;SDS011;137;48.578;9.180;2023-11-19T00:09:43;5.57;;;2.13;;
305;SDS011;137;48.578;9.180;2023-11-19T00:12:10;2.37;;;1.73;;
305;SDS011;137;48.578;9.180;2023-11-19T00:14:38;2.40;;;2.00;;
305;SDS011;137;48.578;9.180;2023-11-19T00:17:05;3.33;;;2.30;;
305;SDS011;137;48.578;9.180;2023-11-19T00:19:33;1.83;;;1.70;;
305;SDS011;137;48.578;9.180;2023-11-19T00:21:59;3.00;;;1.60;;
305;SDS011;137;48.578;9.180;2023-11-19T00:24:28;3.43;;;3.07;;
305;SDS011;137;48.578;9.180;2023-11-19T00:26:55;3.20;;;2.43;;
305;SDS011;137;48.578;9.180;2023-11-19T00:29:22;2.63;;;2.43;;
305;SDS011;137;48.578;9.180;2023-11-19T00:31:49;2.73;;;2.53;;
305;SDS011;137;48.578;9.180;2023-11-19T00:34:16;4.13;;;3.00;;
305;SDS011;137;48.578;9.180;2023-11-19T00:36:47;5.53;;;2.87;;
305;SDS011;137;48.578;9.180;2023-11-19T00:39:14;2.60;;;2.40;;
305;SDS011;137;48.578;9.180;2023-11-19T00:41:41;2.87;;;2.60;;
305;SDS011;137;48.578;9.180;2023-11-19T00:44:07;2.87;;;2.60;;
305;SDS011;137;48.578;9.180;2023-11-19T00:46:34;2.93;;;2.60;;
305;SDS011;137;48.578;9.180;2023-11-19T00:49:01;2.90;;;2.30;;
305;SDS011;137;48.578;9.180;2023-11-19T00:51:28;3.00;;;2.70;;
305;SDS011;137;48.578;9.180;2023-11-19T00:53:57;3.63;;;2.67;;
305;SDS011;137;48.578;9.180;2023-11-19T00:56:25;2.90;;;2.60;;
305;SDS011;137;48.578;9.180;2023-11-19T00:58:53;2.97;;;2.67;;
305;SDS011;137;48.578;9.180;2023-11-19T01:01:20;3.03;;;2.70;;
305;SDS011;137;48.578;9.180;2023-11-19T01:03:47;2.87;;;2.20;;
305;SDS011;137;48.578;9.180;2023-11-19T01:06:13;4.20;;;2.80;;
305;SDS011;137;48.578;9.180;2023-11-19T01:08:42;3.60;;;2.87;;
305;SDS011;137;48.578;9.180;2023-11-19T01:11:20;2.50;;;2.10;;
305;SDS011;137;48.578;9.180;2023-11-19T01:13:47;3.27;;;2.57;;
305;SDS011;137;48.578;9.180;2023-11-19T01:16:13;2.83;;;2.03;;
305;SDS011;137;48.578;9.180;2023-11-19T01:18:40;5.93;;;3.00;;
305;SDS011;137;48.578;9.180;2023-11-19T01:21:07;3.00;;;2.53;;
305;SDS011;137;48.578;9.180;2023-11-19T01:23:34;3.20;;;2.90;;
305;SDS011;137;48.578;9.180;2023-11-19T01:26:02;2.70;;;2.50;;
305;SDS011;137;48.578;9.180;2023-11-19T01:28:31;3.17;;;2.87;;
305;SDS011;137;48.578;9.180;2023-11-19T01:30:58;3.73;;;2.87;;
305;SDS011;137;48.578;9.180;2023-11-19T01:33:25;3.47;;;3.13;;
305;SDS011;137;48.578;9.180;2023-11-19T01:35:52;2.97;;;2.67;;
305;SDS011;137;48.578;9.180;2023-11-19T01:38:20;2.43;;;2.23;;
305;SDS011;137;48.578;9.180;2023-11-19T01:40:46;3.03;;;2.73;;
305;SDS011;137;48.578;9.180;2023-11-19T01:46:03;2.90;;;2.70;;
305;SDS011;137;48.578;9.180;2023-11-19T01:48:31;3.20;;;2.77;;
305;SDS011;137;48.578;9.180;2023-11-19T01:51:00;3.67;;;3.10;;
305;SDS011;137;48.578;9.180;2023-11-19T01:53:27;2.60;;;2.40;;
305;SDS011;137;48.578;9.180;2023-11-19T01:55:55;4.20;;;2.63;;
305;SDS011;137;48.578;9.180;2023-11-19T01:58:23;3.30;;;3.00;;
305;SDS011;137;48.578;9.180;2023-11-19T02:00:51;3.30;;;3.00;;
305;SDS011;137;48.578;9.180;2023-11-19T02:03:18;3.10;;;2.73;;
305;SDS011;137;48.578;9.180;2023-11-19T02:05:47;3.67;;;2.60;;
305;SDS011;137;48.578;9.180;2023-11-19T02:08:16;2.67;;;2.30;;
305;SDS011;137;48.578;9.180;2023-11-19T02:10:42;2.43;;;2.10;;
305;SDS011;137;48.578;9.180;2023-11-19T02:13:09;2.60;;;2.40;;
305;SDS011;137;48.578;9.180;2023-11-19T02:15:38;2.47;;;2.27;;
305;SDS011;137;48.578;9.180;2023-11-19T02:18:19;2.40;;;2.20;;
305;SDS011;137;48.578;9.180;2023-11-19T02:20:47;1.63;;;1.53;;
305;SDS011;137;48.578;9.180;2023-11-19T02:23:14;2.20;;;2.00;;
305;SDS011;137;48.578;9.180;2023-11-19T02:25:41;2.20;;;1.77;;
305;SDS011;137;48.578;9.180;2023-11-19T02:28:11;2.00;;;1.80;;
305;SDS011;137;48.578;9.180;2023-11-19T02:30:39;2.10;;;1.70;;
305;SDS011;137;48.578;9.180;2023-11-19T02:33:06;1.50;;;1.40;;
305;SDS011;137;48.578;9.180;2023-11-19T02:35:33;1.60;;;1.43;;
305;SDS011;137;48.578;9.180;2023-11-19T02:38:00;1.60;;;1.40;;
305;SDS011;137;48.578;9.180;2023-11-19T02:40:29;1.50;;;1.23;;
305;SDS011;137;48.578;9.180;2023-11-19T02:42:55;2.00;;;1.50;;
305;SDS011;137;48.578;9.180;2023-11-19T02:45:24;2.10;;;1.50;;
305;SDS011;137;48.578;9.180;2023-11-19T02:47:52;1.60;;;1.50;;
305;SDS011;137;48.578;9.180;2023-11-19T02:50:20;1.57;;;1.37;;
305;SDS011;137;48.578;9.180;2023-11-19T02:52:50;1.70;;;1.60;;
305;SDS011;137;48.578;9.180;2023-11-19T02:55:18;1.87;;;1.20;;
305;SDS011;137;48.578;9.180;2023-11-19T02:57:45;1.57;;;1.10;;
305;SDS011;137;48.578;9.180;2023-11-19T03:00:14;1.40;;;1.20;;
305;SDS011;137;48.578;9.180;2023-11-19T03:02:42;1.27;;;1.10;;
305;SDS011;137;48.578;9.180;2023-11-19T03:05:11;1.30;;;1.10;;
305;SDS011;137;48.578;9.180;2023-11-19T03:07:39;3.00;;;1.10;;
305;SDS011;137;48.578;9.180;2023-11-19T03:10:08;1.90;;;1.13;;
305;SDS011;137;48.578;9.180;2023-11-19T03:12:38;1.87;;;1.30;;
305;SDS011;137;48.578;9.180;2023-11-19T03:15:05;1.40;;;1.10;;
305;SDS011;137;48.578;9.180;2023-11-19T03:17:34;1.63;;;1.30;;
305;SDS011;137;48.578;9.180;2023-11-19T03:20:03;2.23;;;1.30;;
305;SDS011;137;48.578;9.180;2023-11-19T03:22:31;1.10;;;0.90;;
305;SDS011;137;48.578;9.180;2023-11-19T03:24:59;1.40;;;1.20;;
305;SDS011;137;48.578;9.180;2023-11-19T03:27:26;1.50;;;1.13;;
305;SDS011;137;48.578;9.180;2023-11-19T03:29:52;1.40;;;1.03;;
305;SDS011;137;48.578;9.180;2023-11-19T03:32:19;1.67;;;1.10;;
305;SDS011;137;48.578;9.180;2023-11-19T03:34:46;1.30;;;0.90;;
305;SDS011;137;48.578;9.180;2023-11-19T03:37:14;1.40;;;1.10;;
305;SDS011;137;48.578;9.180;2023-11-19T03:39:42;1.53;;;1.03;;
305;SDS011;137;48.578;9.180;2023-11-19T03:42:09;3.23;;;1.00;;
305;SDS011;137;48.578;9.180;2023-11-19T03:44:37;1.40;;;1.00;;
305;SDS011;137;48.578;9.180;2023-11-19T03:47:03;1.47;;;1.10;;
305;SDS011;137;48.578;9.180;2023-11-19T03:49:31;1.83;;;1.00;;
305;SDS011;137;48.578;9.180;2023-11-19T03:51:58;1.97;;;1.10;;
305;SDS011;137;48.578;9.180;2023-11-19T03:54:26;1.50;;;1.10;;
305;SDS011;137;48.578;9.180;2023-11-19T03:56:53;2.57;;;1.10;;
305;SDS011;137;48.578;9.180;2023-11-19T03:59:20;1.30;;;1.07;;
305;SDS011;137;48.578;9.180;2023-11-19T04:01:46;1.10;;;0.90;;
305;SDS011;137;48.578;9.180;2023-11-19T04:04:13;1.27;;;1.17;;
305;SDS011;137;48.578;9.180;2023-11-19T04:06:40;1.20;;;1.00;;
305;SDS011;137;48.578;9.180;2023-11-19T04:09:07;1.27;;;1.10;;
305;SDS011;137;48.578;9.180;2023-11-19T04:11:35;1.33;;;1.10;;
305;SDS011;137;48.578;9.180;2023-11-19T04:14:02;1.13;;;1.03;;
305;SDS011;137;48.578;9.180;2023-11-19T04:16:29;1.20;;;0.90;;
305;SDS011;137;48.578;9.180;2023-11-19T04:18:55;1.27;;;1.07;;
305;SDS011;137;48.578;9.180;2023-11-19T04:21:22;1.27;;;1.00;;
305;SDS011;137;48.578;9.180;2023-11-19T04:23:49;1.77;;;1.03;;
305;SDS011;137;48.578;9.180;2023-11-19T04:26:15;1.53;;;1.00;;
305;SDS011;137;48.578;9.180;2023-11-19T04:28:44;1.20;;;0.90;;
305;SDS011;137;48.578;9.180;2023-11-19T04:31:10;1.20;;;1.10;;
305;SDS011;137;48.578;9.180;2023-11-19T04:33:37;1.07;;;0.80;;
305;SDS011;137;48.578;9.180;2023-11-19T04:36:04;1.67;;;1.00;;
305;SDS011;137;48.578;9.180;2023-11-19T04:38:32;1.47;;;1.00;;
305;SDS011;137;48.578;9.180;2023-11-19T04:40:59;1.20;;;0.90;;
305;SDS011;137;48.578;9.180;2023-11-19T04:43:26;1.30;;;0.93;;
305;SDS011;137;48.578;9.180;2023-11-19T04:45:54;1.20;;;0.83;;
305;SDS011;137;48.578;9.180;2023-11-19T04:48:21;0.90;;;0.60;;
305;SDS011;137;48.578;9.180;2023-11-19T04:50:48;3.17;;;0.90;;
305;SDS011;137;48.578;9.180;2023-11-19T04:53:16;1.20;;;0.73;;
305;SDS011;137;48.578;9.180;2023-11-19T04:55:43;1.20;;;0.70;;
305;SDS011;137;48.578;9.180;2023-11-19T04:58:09;1.23;;;0.70;;
305;SDS011;137;48.578;9.180;2023-11-19T05:00:36;1.00;;;0.70;;
305;SDS011;137;48.578;9.180;2023-11-19T05:03:04;1.20;;;0.70;;
305;SDS011;137;48.578;9.180;2023-11-19T05:05:31;1.10;;;0.60;;
305;SDS011;137;48.578;9.180;2023-11-19T05:07:58;0.90;;;0.60;;
305;SDS011;137;48.578;9.180;2023-11-19T05:10:25;1.00;;;0.70;;
305;SDS011;137;48.578;9.180;2023-11-19T05:12:51;1.77;;;0.70;;
305;SDS011;137;48.578;9.180;2023-11-19T05:15:18;2.60;;;0.70;;
305;SDS011;137;48.578;9.180;2023-11-19T05:17:45;1.83;;;0.70;;
305;SDS011;137;48.578;9.180;2023-11-19T05:20:13;1.10;;;0.70;;
305;SDS011;137;48.578;9.180;2023-11-19T05:22:40;1.00;;;0.70;;
305;SDS011;137;48.578;9.180;2023-11-19T05:25:07;1.30;;;0.60;;
305;SDS011;137;48.578;9.180;2023-11-19T05:27:35;1.00;;;0.60;;
305;SDS011;137;48.578;9.180;2023-11-19T05:30:02;1.00;;;0.70;;
305;SDS011;137;48.578;9.180;2023-11-19T05:32:32;1.00;;;0.90;;
305;SDS011;137;48.578;9.180;2023-11-19T05:34:59;1.00;;;0.70;;
305;SDS011;137;48.578;9.180;2023-11-19T05:37:27;1.20;;;0.63;;
305;SDS011;137;48.578;9.180;2023-11-19T05:39:53;1.30;;;0.90;;
305;SDS011;137;48.578;9.180;2023-11-19T05:42:20;2.07;;;0.70;;
305;SDS011;137;48.578;9.180;2023-11-19T05:44:48;1.20;;;0.77;;
305;SDS011;137;48.578;9.180;2023-11-19T05:47:15;1.00;;;0.60;;
305;SDS011;137;48.578;9.180;2023-11-19T05:49:42;1.00;;;0.70;;
305;SDS011;137;48.578;9.180;2023-11-19T05:52:08;1.00;;;0.60;;
305;SDS011;137;48.578;9.180;2023-11-19T05:54:38;0.90;;;0.50;;
305;SDS011;137;48.578;9.180;2023-11-19T05:57:05;1.00;;;0.70;;
305;SDS011;137;48.578;9.180;2023-11-19T05:59:34;1.00;;;0.60;;
305;SDS011;137;48.578;9.180;2023-11-19T06:02:01;0.90;;;0.53;;
305;SDS011;137;48.578;9.180;2023-11-19T06:04:28;1.00;;;0.60;;
305;SDS011;137;48.578;9.180;2023-11-19T06:06:54;1.30;;;0.90;;
305;SDS011;137;48.578;9.180;2023-11-19T06:09:21;0.90;;;0.60;;
305;SDS011;137;48.578;9.180;2023-11-19T06:11:50;1.10;;;0.67;;
305;SDS011;137;48.578;9.180;2023-11-19T06:14:17;2.50;;;1.40;;
305;SDS011;137;48.578;9.180;2023-11-19T06:16:44;0.90;;;0.50;;
305;SDS011;137;48.578;9.180;2023-11-19T06:19:11;1.57;;;0.53;;
305;SDS011;137;48.578;9.180;2023-11-19T06:21:38;0.97;;;0.60;;
305;SDS011;137;48.578;9.180;2023-11-19T06:24:05;0.90;;;0.50;;
305;SDS011;137;48.578;9.180;2023-11-19T06:26:32;1.00;;;0.60;;
305;SDS011;137;48.578;9.180;2023-11-19T06:29:00;1.20;;;0.80;;
305;SDS011;137;48.578;9.180;2023-11-19T06:31:26;1.40;;;0.77;;
305;SDS011;137;48.578;9.180;2023-11-19T06:33:53;1.10;;;0.70;;
305;SDS011;137;48.578;9.180;2023-11-19T06:36:20;1.20;;;0.70;;
305;SDS011;137;48.578;9.180;2023-11-19T06:38:47;1.07;;;0.67;;
305;SDS011;137;48.578;9.180;2023-11-19T06:41:14;1.70;;;0.70;;
305;SDS011;137;48.578;9.180;2023-11-19T06:43:40;1.20;;;0.67;;
305;SDS011;137;48.578;9.180;2023-11-19T06:46:15;1.50;;;0.80;;
305;SDS011;137;48.578;9.180;2023-11-19T06:48:42;1.83;;;0.80;;
305;SDS011;137;48.578;9.180;2023-11-19T06:51:09;1.20;;;0.90;;
305;SDS011;137;48.578;9.180;2023-11-19T06:53:36;1.20;;;0.80;;
305;SDS011;137;48.578;9.180;2023-11-19T06:56:04;1.00;;;0.60;;
305;SDS011;137;48.578;9.180;2023-11-19T06:58:35;0.97;;;0.60;;
305;SDS011;137;48.578;9.180;2023-11-19T07:01:02;1.60;;;0.67;;
305;SDS011;137;48.578;9.180;2023-11-19T07:03:31;1.20;;;0.83;;
305;SDS011;137;48.578;9.180;2023-11-19T07:05:57;1.10;;;0.80;;
305;SDS011;137;48.578;9.180;2023-11-19T07:08:24;1.20;;;0.90;;
305;SDS011;137;48.578;9.180;2023-11-19T07:10:51;1.40;;;1.03;;
305;SDS011;137;48.578;9.180;2023-11-19T07:13:18;1.73;;;1.07;;
305;SDS011;137;48.578;9.180;2023-11-19T07:15:45;1.87;;;1.13;;
305;SDS011;137;48.578;9.180;2023-11-19T07:18:13;1.60;;;1.20;;
305;SDS011;137;48.578;9.180;2023-11-19T07:20:41;3.53;;;1.30;;
305;SDS011;137;48.578;9.180;2023-11-19T07:23:08;1.23;;;1.03;;
305;SDS011;137;48.578;9.180;2023-11-19T07:25:35;1.40;;;1.10;;
305;SDS011;137;48.578;9.180;2023-11-19T07:28:02;1.60;;;1.30;;
305;SDS011;137;48.578;9.180;2023-11-19T07:30:29;1.40;;;1.10;;
305;SDS011;137;48.578;9.180;2023-11-19T07:32:56;2.90;;;1.00;;
305;SDS011;137;48.578;9.180;2023-11-19T07:35:23;2.30;;;1.00;;
305;SDS011;137;48.578;9.180;2023-11-19T07:37:51;1.20;;;1.00;;
305;SDS011;137;48.578;9.180;2023-11-19T07:40:17;1.10;;;0.90;;
305;SDS011;137;48.578;9.180;2023-11-19T07:42:45;1.20;;;1.00;;
305;SDS011;137;48.578;9.180;2023-11-19T07:45:11;1.10;;;0.80;;
305;SDS011;137;48.578;9.180;2023-11-19T07:47:38;1.40;;;0.93;;
305;SDS011;137;48.578;9.180;2023-11-19T07:50:05;1.10;;;0.87;;
305;SDS011;137;48.578;9.180;2023-11-19T07:52:32;1.00;;;0.70;;
305;SDS011;137;48.578;9.180;2023-11-19T07:55:00;1.10;;;0.70;;
305;SDS011;137;48.578;9.180;2023-11-19T07:57:27;1.37;;;0.73;;
305;SDS011;137;48.578;9.180;2023-11-19T07:59:55;1.10;;;0.80;;
305;SDS011;137;48.578;9.180;2023-11-19T08:02:22;0.90;;;0.57;;
305;SDS011;137;48.578;9.180;2023-11-19T08:04:49;1.10;;;0.60;;
305;SDS011;137;48.578;9.180;2023-11-19T08:07:17;1.00;;;0.67;;
305;SDS011;137;48.578;9.180;2023-11-19T08:09:44;2.07;;;0.80;;
305;SDS011;137;48.578;9.180;2023-11-19T08:12:12;1.00;;;0.80;;
305;SDS011;137;48.578;9.180;2023-11-19T08:14:40;2.03;;;0.80;;
305;SDS011;137;48.578;9.180;2023-11-19T08:17:09;1.10;;;0.80;;
305;SDS011;137;48.578;9.180;2023-11-19T08:19:35;1.30;;;0.60;;
305;SDS011;137;48.578;9.180;2023-11-19T08:22:02;2.50;;;0.80;;
305;SDS011;137;48.578;9.180;2023-11-19T08:24:29;1.30;;;0.83;;
305;SDS011;137;48.578;9.180;2023-11-19T08:26:56;1.30;;;0.80;;
305;SDS011;137;48.578;9.180;2023-11-19T08:29:24;1.10;;;0.80;;
305;SDS011;137;48.578;9.180;2023-11-19T08:31:50;1.20;;;0.67;;
305;SDS011;137;48.578;9.180;2023-11-19T08:34:17;1.00;;;0.60;;
305;SDS011;137;48.578;9.180;2023-11-19T08:36:44;1.10;;;0.80;;
305;SDS011;137;48.578;9.180;2023-11-19T08:39:11;1.10;;;0.70;;
305;SDS011;137;48.578;9.180;2023-11-19T08:41:38;2.73;;;1.33;;
305;SDS011;137;48.578;9.180;2023-11-19T08:44:06;1.20;;;1.00;;
305;SDS011;137;48.578;9.180;2023-11-19T08:46:34;1.40;;;1.03;;
305;SDS011;137;48.578;9.180;2023-11-19T08:49:01;1.47;;;1.17;;
305;SDS011;137;48.578;9.180;2023-11-19T08:51:28;1.60;;;1.33;;
305;SDS011;137;48.578;9.180;2023-11-19T08:53:55;1.60;;;1.33;;
305;SDS011;137;48.578;9.180;2023-11-19T08:56:22;1.30;;;1.13;;
305;SDS011;137;48.578;9.180;2023-11-19T08:58:49;1.40;;;1.10;;
305;SDS011;137;48.578;9.180;2023-11-19T09:01:16;2.40;;;2.00;;
305;SDS011;137;48.578;9.180;2023-11-19T09:03:44;2.90;;;1.30;;
305;SDS011;137;48.578;9.180;2023-11-19T09:06:10;2.23;;;1.10;;
305;SDS011;137;48.578;9.180;2023-11-19T09:08:37;2.70;;;0.80;;
305;SDS011;137;48.578;9.180;2023-11-19T09:11:06;1.20;;;0.83;;
305;SDS011;137;48.578;9.180;2023-11-19T09:13:34;1.10;;;0.70;;
305;SDS011;137;48.578;9.180;2023-11-19T09:16:00;2.50;;;1.07;;
305;SDS011;137;48.578;9.180;2023-11-19T09:18:28;1.00;;;0.70;;
305;SDS011;137;48.578;9.180;2023-11-19T09:20:56;2.20;;;0.90;;
305;SDS011;137;48.578;9.180;2023-11-19T09:23:23;1.10;;;0.80;;
305;SDS011;137;48.578;9.180;2023-11-19T09:25:50;1.03;;;0.63;;
305;SDS011;137;48.578;9.180;2023-11-19T09:28:17;1.23;;;0.80;;
305;SDS011;137;48.578;9.180;2023-11-19T09:30:44;1.10;;;0.57;;
305;SDS011;137;48.578;9.180;2023-11-19T09:33:10;1.20;;;0.70;;
305;SDS011;137;48.578;9.180;2023-11-19T09:35:37;1.30;;;0.80;;
305;SDS011;137;48.578;9.180;2023-11-19T09:38:05;1.37;;;0.90;;
305;SDS011;137;48.578;9.180;2023-11-19T09:40:32;1.20;;;0.70;;
305;SDS011;137;48.578;9.180;2023-11-19T09:42:59;1.00;;;0.63;;
305;SDS011;137;48.578;9.180;2023-11-19T09:45:27;0.90;;;0.60;;
305;SDS011;137;48.578;9.180;2023-11-19T09:47:55;1.27;;;0.60;;
305;SDS011;137;48.578;9.180;2023-11-19T09:50:23;1.10;;;0.83;;
305;SDS011;137;48.578;9.180;2023-11-19T09:52:49;1.00;;;0.60;;
305;SDS011;137;48.578;9.180;2023-11-19T09:55:18;1.30;;;0.63;;
305;SDS011;137;48.578;9.180;2023-11-19T09:57:45;2.10;;;1.23;;
305;SDS011;137;48.578;9.180;2023-11-19T10:00:17;1.10;;;0.60;;
305;SDS011;137;48.578;9.180;2023-11-19T10:02:44;1.60;;;1.10;;
305;SDS011;137;48.578;9.180;2023-11-19T10:05:12;1.30;;;0.70;;
305;SDS011;137;48.578;9.180;2023-11-19T10:07:39;1.33;;;0.70;;
305;SDS011;137;48.578;9.180;2023-11-19T10:10:07;0.90;;;0.60;;
305;SDS011;137;48.578;9.180;2023-11-19T10:12:37;1.30;;;1.00;;
305;SDS011;137;48.578;9.180;2023-11-19T10:15:05;2.13;;;0.70;;
305;SDS011;137;48.578;9.180;2023-11-19T10:17:40;1.10;;;0.80;;
305;SDS011;137;48.578;9.180;2023-11-19T10:20:08;1.10;;;0.60;;
305;SDS011;137;48.578;9.180;2023-11-19T10:22:36;1.20;;;0.87;;
305;SDS011;137;48.578;9.180;2023-11-19T10:25:03;1.40;;;0.70;;
305;SDS011;137;48.578;9.180;2023-11-19T10:27:31;1.00;;;0.60;;
305;SDS011;137;48.578;9.180;2023-11-19T10:30:02;1.00;;;0.60;;
305;SDS011;137;48.578;9.180;2023-11-19T10:32:30;1.63;;;0.70;;
305;SDS011;137;48.578;9.180;2023-11-19T10:35:06;1.20;;;0.80;;
305;SDS011;137;48.578;9.180;2023-11-19T10:37:33;1.10;;;0.80;;
305;SDS011;137;48.578;9.180;2023-11-19T10:40:02;1.30;;;0.60;;
305;SDS011;137;48.578;9.180;2023-11-19T10:42:30;1.40;;;0.70;;
305;SDS011;137;48.578;9.180;2023-11-19T10:44:57;1.30;;;0.60;;
305;SDS011;137;48.578;9.180;2023-11-19T10:47:25;0.90;;;0.60;;
305;SDS011;137;48.578;9.180;2023-11-19T10:49:53;1.20;;;0.70;;
305;SDS011;137;48.578;9.180;2023-11-19T10:52:20;0.97;;;0.60;;
305;SDS011;137;48.578;9.180;2023-11-19T10:54:49;1.57;;;0.70;;
305;SDS011;137;48.578;9.180;2023-11-19T10:57:19;1.30;;;0.60;;
305;SDS011;137;48.578;9.180;2023-11-19T10:59:48;1.10;;;0.60;;
305;SDS011;137;48.578;9.180;2023-11-19T11:02:18;1.53;;;0.80;;
305;SDS011;137;48.578;9.180;2023-11-19T11:04:48;1.20;;;0.80;;
305;SDS011;137;48.578;9.180;2023-11-19T11:07:16;1.50;;;0.70;;
305;SDS011;137;48.578;9.180;2023-11-19T11:09:47;1.07;;;0.70;;
305;SDS011;137;48.578;9.180;2023-11-19T11:12:14;1.43;;;0.70;;
305;SDS011;137;48.578;9.180;2023-11-19T11:14:42;1.20;;;0.80;;
305;SDS011;137;48.578;9.180;2023-11-19T11:17:11;2.80;;;0.70;;
305;SDS011;137;48.578;9.180;2023-11-19T11:19:41;1.00;;;0.60;;
305;SDS011;137;48.578;9.180;2023-11-19T11:22:10;1.17;;;0.80;;
305;SDS011;137;48.578;9.180;2023-11-19T11:24:48;1.10;;;0.70;;
305;SDS011;137;48.578;9.180;2023-11-19T11:27:47;1.10;;;0.60;;
305;SDS011;137;48.578;9.180;2023-11-19T11:30:23;3.73;;;0.70;;
305;SDS011;137;48.578;9.180;2023-11-19T11:32:59;1.00;;;0.70;;
305;SDS011;137;48.578;9.180;2023-11-19T11:35:39;1.10;;;0.60;;
305;SDS011;137;48.578;9.180;2023-11-19T11:38:17;1.00;;;0.60;;
305;SDS011;137;48.578;9.180;2023-11-19T11:43:44;1.40;;;0.80;;
305;SDS011;137;48.578;9.180;2023-11-19T11:49:11;4.80;;;1.93;;
305;SDS011;137;48.578;9.180;2023-11-19T11:54:28;1.10;;;0.77;;
305;SDS011;137;48.578;9.180;2023-11-19T11:57:02;1.10;;;0.90;;
305;SDS011;137;48.578;9.180;2023-11-19T11:59:36;1.47;;;0.73;;
305;SDS011;137;48.578;9.180;2023-11-19T12:02:04;1.17;;;0.70;;
305;SDS011;137;48.578;9.180;2023-11-19T12:04:35;1.10;;;0.60;;
305;SDS011;137;48.578;9.180;2023-11-19T12:07:03;1.10;;;0.70;;
305;SDS011;137;48.578;9.180;2023-11-19T12:09:32;1.00;;;0.70;;
305;SDS011;137;48.578;9.180;2023-11-19T12:12:17;1.00;;;0.70;;
305;SDS011;137;48.578;9.180;2023-11-19T12:15:04;0.90;;;0.50;;
305;SDS011;137;48.578;9.180;2023-11-19T12:17:40;1.00;;;0.60;;
305;SDS011;137;48.578;9.180;2023-11-19T12:20:09;1.00;;;0.63;;
305;SDS011;137;48.578;9.180;2023-11-19T12:22:37;1.37;;;0.60;;
305;SDS011;137;48.578;9.180;2023-11-19T12:25:06;1.40;;;0.90;;
305;SDS011;137;48.578;9.180;2023-11-19T12:27:34;1.00;;;0.50;;
305;SDS011;137;48.578;9.180;2023-11-19T12:30:01;0.97;;;0.57;;
305;SDS011;137;48.578;9.180;2023-11-19T12:32:37;1.00;;;0.60;;
305;SDS011;137;48.578;9.180;2023-11-19T12:35:05;0.90;;;0.50;;
305;SDS011;137;48.578;9.180;2023-11-19T12:37:32;1.00;;;0.60;;
305;SDS011;137;48.578;9.180;2023-11-19T12:40:00;5.00;;;0.80;;
305;SDS011;137;48.578;9.180;2023-11-19T12:42:37;1.37;;;0.50;;
305;SDS011;137;48.578;9.180;2023-11-19T12:45:04;1.00;;;0.60;;
305;SDS011;137;48.578;9.180;2023-11-19T12:47:32;1.00;;;0.60;;
305;SDS011;137;48.578;9.180;2023-11-19T12:49:59;0.90;;;0.50;;
305;SDS011;137;48.578;9.180;2023-11-19T12:52:26;1.43;;;0.90;;
305;SDS011;137;48.578;9.180;2023-11-19T12:54:53;1.00;;;0.60;;
305;SDS011;137;48.578;9.180;2023-11-19T12:57:19;2.90;;;0.87;;
305;SDS011;137;48.578;9.180;2023-11-19T12:59:57;1.23;;;0.77;;
305;SDS011;137;48.578;9.180;2023-11-19T13:02:24;1.30;;;0.60;;
305;SDS011;137;48.578;9.180;2023-11-19T13:05:23;1.50;;;0.60;;
305;SDS011;137;48.578;9.180;2023-11-19T13:07:59;1.43;;;0.70;;
305;SDS011;137;48.578;9.180;2023-11-19T13:10:27;1.60;;;1.10;;
305;SDS011;137;48.578;9.180;2023-11-19T13:13:01;1.90;;;0.70;;
305;SDS011;137;48.578;9.180;2023-11-19T13:15:31;1.20;;;0.70;;
305;SDS011;137;48.578;9.180;2023-11-19T13:17:58;1.00;;;0.60;;
305;SDS011;137;48.578;9.180;2023-11-19T13:22:57;1.97;;;0.70;;
305;SDS011;137;48.578;9.180;2023-11-19T13:25:24;1.27;;;0.80;;
305;SDS011;137;48.578;9.180;2023-11-19T13:27:51;1.03;;;0.70;;
305;SDS011;137;48.578;9.180;2023-11-19T13:30:18;2.50;;;0.80;;
305;SDS011;137;48.578;9.180;2023-11-19T13:32:46;1.30;;;0.70;;
305;SDS011;137;48.578;9.180;2023-11-19T13:35:13;1.57;;;0.80;;
305;SDS011;137;48.578;9.180;2023-11-19T13:37:40;1.50;;;0.70;;
305;SDS011;137;48.578;9.180;2023-11-19T13:40:07;1.33;;;0.67;;
305;SDS011;137;48.578;9.180;2023-11-19T13:42:36;1.57;;;0.70;;
305;SDS011;137;48.578;9.180;2023-11-19T13:45:06;1.43;;;0.70;;
305;SDS011;137;48.578;9.180;2023-11-19T13:47:35;2.80;;;0.80;;
305;SDS011;137;48.578;9.180;2023-11-19T13:50:04;1.10;;;0.80;;
305;SDS011;137;48.578;9.180;2023-11-19T13:52:31;1.50;;;0.70;;
305;SDS011;137;48.578;9.180;2023-11-19T13:54:58;2.77;;;0.70;;
305;SDS011;137;48.578;9.180;2023-11-19T13:57:24;1.63;;;0.87;;
305;SDS011;137;48.578;9.180;2023-11-19T13:59:51;8.10;;;0.93;;
305;SDS011;137;48.578;9.180;2023-11-19T14:02:18;3.47;;;0.77;;
305;SDS011;137;48.578;9.180;2023-11-19T14:04:45;1.50;;;0.83;;
305;SDS011;137;48.578;9.180;2023-11-19T14:07:13;1.47;;;0.93;;
305;SDS011;137;48.578;9.180;2023-11-19T14:09:41;1.40;;;0.70;;
305;SDS011;137;48.578;9.180;2023-11-19T14:12:08;2.50;;;0.90;;
305;SDS011;137;48.578;9.180;2023-11-19T14:14:37;1.20;;;0.70;;
305;SDS011;137;48.578;9.180;2023-11-19T14:17:05;1.10;;;0.60;;
305;SDS011;137;48.578;9.180;2023-11-19T14:19:32;2.60;;;0.70;;
305;SDS011;137;48.578;9.180;2023-11-19T14:21:59;1.10;;;0.70;;
305;SDS011;137;48.578;9.180;2023-11-19T14:24:27;1.20;;;0.70;;
305;SDS011;137;48.578;9.180;2023-11-19T14:26:54;1.10;;;0.67;;
305;SDS011;137;48.578;9.180;2023-11-19T14:29:23;1.55;;;0.80;;
305;SDS011;137;48.578;9.180;2023-11-19T14:31:51;9.63;;;0.97;;
305;SDS011;137;48.578;9.180;2023-11-19T14:34:18;1.40;;;0.90;;
305;SDS011;137;48.578;9.180;2023-11-19T14:36:45;1.30;;;0.70;;
305;SDS011;137;48.578;9.180;2023-11-19T14:39:12;1.63;;;0.60;;
305;SDS011;137;48.578;9.180;2023-11-19T14:41:40;0.93;;;0.57;;
305;SDS011;137;48.578;9.180;2023-11-19T14:44:08;1.20;;;0.63;;
305;SDS011;137;48.578;9.180;2023-11-19T14:46:35;1.00;;;0.63;;
305;SDS011;137;48.578;9.180;2023-11-19T14:49:02;1.00;;;0.70;;
305;SDS011;137;48.578;9.180;2023-11-19T14:51:29;1.00;;;0.60;;
305;SDS011;137;48.578;9.180;2023-11-19T14:53:56;4.03;;;1.00;;
305;SDS011;137;48.578;9.180;2023-11-19T14:56:23;1.93;;;1.00;;
305;SDS011;137;48.578;9.180;2023-11-19T14:58:51;1.30;;;0.70;;
305;SDS011;137;48.578;9.180;2023-11-19T15:01:18;1.00;;;0.60;;
305;SDS011;137;48.578;9.180;2023-11-19T15:03:44;1.50;;;0.70;;
305;SDS011;137;48.578;9.180;2023-11-19T15:06:11;1.10;;;0.70;;
305;SDS011;137;48.578;9.180;2023-11-19T15:08:38;1.10;;;0.80;;
305;SDS011;137;48.578;9.180;2023-11-19T15:11:05;1.67;;;0.73;;
305;SDS011;137;48.578;9.180;2023-11-19T15:13:32;1.10;;;0.77;;
305;SDS011;137;48.578;9.180;2023-11-19T15:16:02;1.20;;;0.70;;
305;SDS011;137;48.578;9.180;2023-11-19T15:18:30;1.20;;;0.67;;
305;SDS011;137;48.578;9.180;2023-11-19T15:20:57;1.93;;;0.70;;
305;SDS011;137;48.578;9.180;2023-11-19T15:23:23;0.97;;;0.67;;
305;SDS011;137;48.578;9.180;2023-11-19T15:25:50;0.97;;;0.57;;
305;SDS011;137;48.578;9.180;2023-11-19T15:28:17;1.00;;;0.60;;
305;SDS011;137;48.578;9.180;2023-11-19T15:30:44;1.07;;;0.63;;
305;SDS011;137;48.578;9.180;2023-11-19T15:33:12;1.20;;;0.60;;
305;SDS011;137;48.578;9.180;2023-11-19T15:35:38;1.10;;;0.63;;
305;SDS011;137;48.578;9.180;2023-11-19T15:38:05;1.40;;;0.80;;
305;SDS011;137;48.578;9.180;2023-11-19T15:40:34;1.10;;;0.67;;
305;SDS011;137;48.578;9.180;2023-11-19T15:43:02;1.10;;;0.80;;
305;SDS011;137;48.578;9.180;2023-11-19T15:45:29;2.80;;;0.83;;
305;SDS011;137;48.578;9.180;2023-11-19T15:47:55;3.43;;;0.90;;
305;SDS011;137;48.578;9.180;2023-11-19T15:50:23;1.67;;;1.30;;
305;SDS011;137;48.578;9.180;2023-11-19T15:52:50;1.30;;;0.80;;
305;SDS011;137;48.578;9.180;2023-11-19T15:55:17;1.17;;;0.80;;
305;SDS011;137;48.578;9.180;2023-11-19T15:57:44;1.67;;;0.87;;
305;SDS011;137;48.578;9.180;2023-11-19T16:00:11;1.83;;;0.73;;
305;SDS011;137;48.578;9.180;2023-11-19T16:02:41;1.10;;;0.80;;
305;SDS011;137;48.578;9.180;2023-11-19T16:05:08;1.10;;;0.83;;